createdAt,value
2023-02-06T00:08:08.721Z,8.30
2023-02-06T00:13:02.197Z,12.13
2023-02-06T00:17:55.535Z,10.07
2023-02-06T00:38:12.542Z,12.73
2023-02-06T00:43:06.020Z,13.60
2023-02-06T00:47:59.432Z,14.77
2023-02-06T00:52:53.326Z,14.77
2023-02-06T00:57:48.072Z,14.73
2023-02-06T01:02:41.790Z,13.88
2023-02-06T01:07:37.593Z,14.87
2023-02-06T01:12:30.959Z,16.20
2023-02-06T01:17:25.772Z,15.03
2023-02-06T01:22:19.118Z,13.57
2023-02-06T01:27:12.545Z,15.37
2023-02-06T01:32:06.101Z,15.60
2023-02-06T01:37:00.907Z,14.87
2023-02-06T01:41:54.297Z,13.23
2023-02-06T01:46:49.721Z,14.30
2023-02-06T01:51:43.711Z,13.10
2023-02-06T01:56:46.351Z,11.97
2023-02-06T02:01:39.902Z,11.33
2023-02-06T02:06:34.032Z,13.43
2023-02-06T02:11:32.887Z,11.70
2023-02-06T02:37:04.334Z,13.03
2023-02-06T02:42:06.117Z,12.37
2023-02-06T02:47:08.714Z,13.07
2023-02-06T02:52:04.699Z,12.23
2023-02-06T02:57:07.311Z,12.23
2023-02-06T03:02:08.031Z,12.50
2023-02-06T03:07:17.435Z,12.37
2023-02-06T03:12:20.970Z,13.43
2023-02-06T03:17:24.985Z,11.27
2023-02-06T03:22:23.885Z,13.67
2023-02-06T03:27:20.074Z,11.03
2023-02-06T03:32:24.048Z,11.70
2023-02-06T03:37:18.954Z,10.50
2023-02-06T03:42:15.662Z,9.77
2023-02-06T03:47:18.272Z,10.63
2023-02-06T03:52:16.860Z,11.70
2023-02-06T03:57:26.189Z,10.07
2023-02-06T04:02:21.635Z,10.40
2023-02-06T04:07:23.565Z,10.80
2023-02-06T04:12:19.001Z,11.47
2023-02-06T04:17:17.031Z,10.80
2023-02-06T04:22:36.704Z,12.97
2023-02-06T04:27:31.785Z,12.40
2023-02-06T04:32:25.969Z,11.83
2023-02-06T04:57:48.359Z,14.03
2023-02-06T05:02:43.971Z,14.03
2023-02-06T05:07:46.225Z,15.43
2023-02-06T05:12:43.756Z,14.80
2023-02-06T05:17:38.654Z,14.63
2023-02-06T05:22:32.215Z,15.00
2023-02-06T05:27:25.822Z,19.07
2023-02-06T05:32:23.216Z,17.57
2023-02-06T05:52:39.421Z,18.10
2023-02-06T05:58:01.478Z,19.53
2023-02-06T06:02:57.786Z,21.43
2023-02-06T06:07:57.629Z,21.13
2023-02-06T06:13:14.183Z,20.17
2023-02-06T06:18:22.374Z,20.60
2023-02-06T06:23:20.615Z,19.87
2023-02-06T06:28:14.393Z,22.07
2023-02-06T06:33:17.569Z,18.83
2023-02-06T06:38:11.239Z,17.73
2023-02-06T06:43:06.140Z,19.40
2023-02-06T06:47:59.560Z,19.97
2023-02-06T06:52:52.955Z,17.53
2023-02-06T06:57:46.404Z,18.60
2023-02-06T07:02:41.587Z,19.80
2023-02-06T07:07:35.538Z,20.47
2023-02-06T07:12:38.586Z,17.30
2023-02-06T07:17:34.748Z,18.23
2023-02-06T07:22:29.587Z,16.80
2023-02-06T07:27:23.400Z,16.50
2023-02-06T07:32:17.197Z,16.37
2023-02-06T07:37:10.671Z,14.00
2023-02-06T07:42:06.037Z,15.93
2023-02-06T07:46:59.438Z,16.10
2023-02-06T07:51:53.051Z,17.30
2023-02-06T07:56:46.552Z,15.80
2023-02-06T08:01:41.464Z,15.70
2023-02-06T08:06:35.019Z,18.37
2023-02-06T08:11:30.466Z,17.33
2023-02-06T08:16:25.700Z,18.17
2023-02-06T08:21:23.916Z,15.47
2023-02-06T08:26:22.067Z,17.70
2023-02-06T08:31:20.700Z,16.83
2023-02-06T08:36:17.688Z,15.07
2023-02-06T08:41:23.786Z,17.87
2023-02-06T08:51:56.666Z,13.33
2023-02-06T08:56:56.442Z,15.37
2023-02-06T09:01:52.198Z,16.50
2023-02-06T09:06:48.946Z,14.87
2023-02-06T09:11:43.706Z,15.40
2023-02-06T09:16:42.010Z,14.00
2023-02-06T09:21:38.639Z,12.60
2023-02-06T09:26:38.901Z,14.20
2023-02-06T09:31:35.367Z,13.87
2023-02-06T09:36:34.589Z,12.97
2023-02-06T09:41:35.086Z,16.50
2023-02-06T09:46:34.716Z,15.33
2023-02-06T09:52:02.349Z,12.27
2023-02-06T09:57:18.391Z,13.93
2023-02-06T10:02:42.192Z,13.90
2023-02-06T10:08:00.418Z,12.73
2023-02-06T10:13:15.795Z,12.20
2023-02-06T10:18:16.449Z,14.30
2023-02-06T10:23:30.374Z,15.03
2023-02-06T10:28:27.803Z,14.10
2023-02-06T10:39:11.880Z,13.17
2023-02-06T10:44:24.125Z,14.83
2023-02-06T10:49:33.089Z,12.57
2023-02-06T10:54:39.985Z,11.63
2023-02-06T10:59:43.224Z,14.13
2023-02-06T11:05:03.796Z,13.77
2023-02-06T11:10:08.565Z,14.00
2023-02-06T11:15:12.043Z,12.60
2023-02-06T11:20:21.957Z,13.10
2023-02-06T11:25:33.678Z,11.73
2023-02-06T11:30:43.338Z,10.97
2023-02-06T11:35:50.754Z,12.83
2023-02-06T11:41:02.087Z,10.93
2023-02-06T11:46:20.520Z,11.13
2023-02-06T11:56:36.389Z,11.10
2023-02-06T12:01:44.461Z,10.53
2023-02-06T12:17:23.555Z,13.67
2023-02-06T12:22:23.211Z,11.63
2023-02-06T12:27:23.114Z,12.80
2023-02-06T12:32:25.309Z,9.40
2023-02-06T12:37:31.497Z,10.57
2023-02-06T12:42:42.914Z,11.63
2023-02-06T12:47:47.637Z,13.77
2023-02-06T12:52:46.685Z,11.43
2023-02-06T12:57:40.783Z,10.27
2023-02-06T13:03:08.741Z,12.37
2023-02-06T13:08:10.288Z,10.30
2023-02-06T13:13:03.716Z,9.67
2023-02-06T13:17:58.547Z,12.57
2023-02-06T13:22:55.147Z,16.90
2023-02-06T13:27:48.545Z,10.07
2023-02-06T13:32:54.422Z,15.27
2023-02-06T13:38:05.773Z,10.90
2023-02-06T13:43:08.657Z,10.37
2023-02-06T13:48:54.001Z,12.03
2023-02-06T13:54:21.702Z,10.97
2023-02-06T13:59:21.659Z,8.90
2023-02-06T14:04:25.270Z,12.63
2023-02-06T14:10:00.520Z,10.97
2023-02-06T14:15:15.036Z,9.33
2023-02-06T14:20:30.386Z,15.37
2023-02-06T14:25:48.102Z,9.70
2023-02-06T14:30:52.148Z,9.80
2023-02-06T14:36:06.106Z,9.93
2023-02-06T14:41:01.962Z,11.13
2023-02-06T14:46:07.388Z,9.63
2023-02-06T14:51:02.325Z,9.83
2023-02-06T14:56:18.671Z,12.40
2023-02-06T15:01:24.829Z,10.27
2023-02-06T15:06:33.197Z,10.17
2023-02-06T15:11:32.718Z,11.93
2023-02-06T15:16:26.649Z,11.33
2023-02-06T15:21:22.383Z,10.87
2023-02-06T15:26:28.683Z,10.50
2023-02-06T15:31:33.929Z,8.97
2023-02-06T15:36:44.149Z,11.50
2023-02-06T15:41:38.703Z,7.80
2023-02-06T15:46:39.132Z,8.57
2023-02-06T15:51:55.047Z,8.83
2023-02-06T15:56:54.857Z,12.47
2023-02-06T16:01:50.519Z,11.30
2023-02-06T16:06:44.614Z,10.90
2023-02-06T16:11:51.730Z,11.07
2023-02-06T16:22:04.949Z,10.70
2023-02-06T16:26:58.539Z,10.20
2023-02-06T16:32:01.261Z,10.33
2023-02-06T16:36:56.154Z,9.87
2023-02-06T16:41:52.418Z,9.70
2023-02-06T16:46:46.548Z,10.57
2023-02-06T16:51:42.722Z,9.90
2023-02-06T16:56:40.887Z,11.07
2023-02-06T17:01:35.596Z,11.00
2023-02-06T17:06:37.215Z,9.83
2023-02-06T17:11:31.160Z,9.33
2023-02-06T17:16:29.798Z,9.77
2023-02-06T17:21:27.691Z,11.87
2023-02-06T17:26:23.774Z,11.67
2023-02-06T17:31:18.268Z,10.77
2023-02-06T17:36:18.557Z,9.60
2023-02-06T17:41:12.130Z,9.13
2023-02-06T17:46:06.321Z,10.03
2023-02-06T17:50:59.894Z,11.50
2023-02-06T17:55:54.678Z,12.70
2023-02-06T18:00:49.729Z,10.93
2023-02-06T18:05:43.201Z,10.53
2023-02-06T18:10:36.833Z,10.40
2023-02-06T18:15:32.211Z,11.83
2023-02-06T18:20:25.681Z,13.40
2023-02-06T18:25:19.306Z,11.20
2023-02-06T18:30:15.218Z,11.83
2023-02-06T18:40:13.043Z,14.50
2023-02-06T18:45:07.957Z,12.37
2023-02-06T18:56:01.735Z,14.00
2023-02-06T19:00:55.351Z,16.67
2023-02-06T19:05:48.785Z,14.03
2023-02-06T19:10:49.518Z,11.73
2023-02-06T19:15:49.702Z,13.63
2023-02-06T19:20:44.911Z,15.23
2023-02-06T19:25:45.983Z,14.03
2023-02-06T19:30:45.274Z,15.10
2023-02-06T19:35:44.256Z,14.67
2023-02-06T19:40:40.907Z,13.40
2023-02-06T19:45:37.816Z,17.53
2023-02-06T19:50:35.331Z,16.83
2023-02-06T19:55:34.043Z,17.13
2023-02-06T20:00:30.136Z,20.37
2023-02-06T20:05:27.262Z,16.93
2023-02-06T20:10:21.361Z,15.77
2023-02-06T20:15:16.685Z,19.87
2023-02-06T20:20:11.797Z,16.60
2023-02-06T20:25:05.565Z,16.50
2023-02-06T20:29:58.968Z,16.93
2023-02-06T20:34:53.733Z,16.80
2023-02-06T20:39:47.406Z,15.20
2023-02-06T20:44:40.859Z,16.70
2023-02-06T20:49:34.326Z,15.50
2023-02-06T20:54:30.885Z,17.93
2023-02-06T20:59:24.554Z,17.57
2023-02-06T21:04:19.419Z,10.90
2023-02-06T21:09:13.713Z,12.23
2023-02-06T21:14:09.532Z,9.23
2023-02-06T21:19:09.251Z,9.93
2023-02-06T21:24:03.141Z,11.23
2023-02-06T21:28:58.309Z,15.53
2023-02-06T21:33:53.897Z,11.47
2023-02-06T21:38:47.294Z,12.70
2023-02-06T21:43:43.504Z,10.60
2023-02-06T21:48:39.906Z,9.33
2023-02-06T21:53:34.684Z,10.83
2023-02-06T21:58:28.037Z,9.43
2023-02-06T22:03:22.930Z,8.97
2023-02-06T22:08:16.399Z,9.57
2023-02-06T22:13:11.240Z,10.10
2023-02-06T22:18:05.226Z,11.20
2023-02-06T22:22:58.844Z,10.70
2023-02-06T22:27:52.135Z,10.60
2023-02-06T22:32:46.868Z,12.20
2023-02-06T22:37:40.210Z,12.83
2023-02-06T22:42:34.742Z,10.07
2023-02-06T22:47:31.564Z,13.30
2023-02-06T22:52:45.933Z,12.17
2023-02-06T22:57:42.076Z,12.73
2023-02-06T23:02:35.584Z,10.97
2023-02-06T23:07:30.680Z,13.17
2023-02-06T23:12:24.259Z,11.30
2023-02-06T23:17:17.639Z,11.07
2023-02-06T23:22:11.122Z,14.20
2023-02-06T23:27:05.994Z,13.33
2023-02-06T23:31:59.428Z,13.90
2023-02-06T23:36:53.460Z,12.70
2023-02-06T23:41:47.092Z,13.03
2023-02-06T23:46:42.842Z,12.07
2023-02-06T23:51:40.040Z,11.23
2023-02-06T23:56:34.159Z,10.57
